createdAt,value
2023-01-30T00:01:15.577Z,25.53
2023-01-30T00:03:42.377Z,27.67
2023-01-30T00:06:09.122Z,23.90
2023-01-30T00:08:35.854Z,28.77
2023-01-30T00:11:08.740Z,30.00
2023-01-30T00:13:35.985Z,26.73
2023-01-30T00:16:03.108Z,31.20
2023-01-30T00:18:30.012Z,24.23
2023-01-30T00:20:58.521Z,23.97
2023-01-30T00:23:26.536Z,26.27
2023-01-30T00:25:53.403Z,23.67
2023-01-30T00:28:20.126Z,27.33
2023-01-30T00:30:50.082Z,25.87
2023-01-30T00:33:17.278Z,32.77
2023-01-30T00:35:48.755Z,24.57
2023-01-30T00:38:16.492Z,27.03
2023-01-30T00:40:44.041Z,24.97
2023-01-30T00:43:35.051Z,25.97
2023-01-30T00:46:23.420Z,30.40
2023-01-30T00:48:50.158Z,30.87
2023-01-30T00:51:17.003Z,27.40
2023-01-30T00:53:43.616Z,27.43
2023-01-30T00:56:10.267Z,27.77
2023-01-30T00:58:36.927Z,27.20
2023-01-30T01:01:03.725Z,26.93
2023-01-30T01:03:30.563Z,25.23
2023-01-30T01:05:57.229Z,30.20
2023-01-30T01:08:23.823Z,26.93
2023-01-30T01:10:50.451Z,25.73
2023-01-30T01:13:17.053Z,26.20
2023-01-30T01:15:43.634Z,27.83
2023-01-30T01:18:10.443Z,26.53
2023-01-30T01:20:37.115Z,32.03
2023-01-30T01:23:03.739Z,26.47
2023-01-30T01:25:30.351Z,29.03
2023-01-30T01:27:57.005Z,31.87
2023-01-30T01:30:23.642Z,28.80
2023-01-30T01:32:50.317Z,29.50
2023-01-30T01:35:17.377Z,27.20
2023-01-30T01:37:44.225Z,31.83
2023-01-30T01:40:36.792Z,27.37
2023-01-30T01:43:14.621Z,27.63
2023-01-30T01:45:41.655Z,24.13
2023-01-30T01:48:21.183Z,26.80
2023-01-30T01:50:56.653Z,29.83
2023-01-30T01:53:29.979Z,31.67
2023-01-30T01:55:58.712Z,34.70
2023-01-30T01:58:42.064Z,30.67
2023-01-30T02:01:08.926Z,29.13
2023-01-30T02:03:39.938Z,30.00
2023-01-30T02:06:07.388Z,23.90
2023-01-30T02:08:45.554Z,32.87
2023-01-30T02:11:26.655Z,30.13
2023-01-30T02:13:53.855Z,26.93
2023-01-30T02:16:21.524Z,29.50
2023-01-30T02:18:48.627Z,30.30
2023-01-30T02:21:51.880Z,32.53
2023-01-30T02:24:56.268Z,25.27
2023-01-30T02:27:51.167Z,28.73
2023-01-30T02:31:02.139Z,31.67
2023-01-30T02:34:00.603Z,28.03
2023-01-30T02:36:53.830Z,23.97
2023-01-30T02:39:55.481Z,28.20
2023-01-30T02:42:34.517Z,25.67
2023-01-30T02:45:26.480Z,20.83
2023-01-30T02:48:03.506Z,24.63
2023-01-30T02:50:42.371Z,24.93
2023-01-30T02:53:10.494Z,29.83
2023-01-30T02:55:41.474Z,25.30
2023-01-30T02:58:08.906Z,25.23
2023-01-30T03:00:41.337Z,23.80
2023-01-30T03:03:46.008Z,23.63
2023-01-30T03:06:31.301Z,25.37
2023-01-30T03:09:23.897Z,25.63
2023-01-30T03:12:15.641Z,28.00
2023-01-30T03:14:55.027Z,22.30
2023-01-30T03:17:24.935Z,27.00
2023-01-30T03:19:53.912Z,24.83
2023-01-30T03:22:22.110Z,23.43
2023-01-30T03:24:51.576Z,32.37
2023-01-30T03:27:19.419Z,30.93
2023-01-30T03:29:47.442Z,27.60
2023-01-30T03:32:14.152Z,29.50
2023-01-30T03:34:41.714Z,25.87
2023-01-30T03:37:09.172Z,26.27
2023-01-30T03:39:36.570Z,23.33
2023-01-30T03:42:05.965Z,26.97
2023-01-30T03:44:32.810Z,26.03
2023-01-30T03:46:59.554Z,25.77
2023-01-30T03:49:26.358Z,31.03
2023-01-30T03:51:52.964Z,26.10
2023-01-30T03:54:19.731Z,30.73
2023-01-30T03:56:47.022Z,29.10
2023-01-30T03:59:13.643Z,26.90
2023-01-30T04:01:47.948Z,36.33
2023-01-30T04:04:14.777Z,29.80
2023-01-30T04:06:42.179Z,28.17
2023-01-30T04:09:08.848Z,29.90
2023-01-30T04:11:48.764Z,33.70
2023-01-30T04:14:16.440Z,25.10
2023-01-30T04:17:03.083Z,30.63
2023-01-30T04:19:54.773Z,31.93
2023-01-30T04:22:21.459Z,35.60
2023-01-30T04:24:48.375Z,24.17
2023-01-30T04:27:15.189Z,32.87
2023-01-30T04:29:57.874Z,30.77
2023-01-30T04:32:26.563Z,25.53
2023-01-30T04:34:53.341Z,29.63
2023-01-30T04:37:19.973Z,25.33
2023-01-30T04:39:48.207Z,25.03
2023-01-30T04:42:15.072Z,25.40
2023-01-30T04:44:54.433Z,21.37
2023-01-30T04:47:27.045Z,22.23
2023-01-30T04:49:54.242Z,29.47
2023-01-30T04:52:20.859Z,20.33
2023-01-30T04:54:47.579Z,22.00
2023-01-30T04:57:15.340Z,20.13
2023-01-30T04:59:42.290Z,23.47
2023-01-30T05:02:10.906Z,21.27
2023-01-30T05:04:37.565Z,22.07
2023-01-30T05:07:04.184Z,19.20
2023-01-30T05:09:30.838Z,24.60
2023-01-30T05:11:57.417Z,20.77
2023-01-30T05:14:24.026Z,19.60
2023-01-30T05:16:50.712Z,18.63
2023-01-30T05:19:17.415Z,22.23
2023-01-30T05:21:44.022Z,25.30
2023-01-30T05:24:10.642Z,25.00
2023-01-30T05:26:37.283Z,22.10
2023-01-30T05:29:04.069Z,21.43
2023-01-30T05:31:30.775Z,22.60
2023-01-30T05:33:57.442Z,28.03
2023-01-30T05:36:24.650Z,20.13
2023-01-30T05:38:51.357Z,19.70
2023-01-30T05:41:18.125Z,23.70
2023-01-30T05:43:48.511Z,21.57
2023-01-30T05:46:15.165Z,19.50
2023-01-30T05:48:41.786Z,18.70
2023-01-30T05:51:19.991Z,19.40
2023-01-30T05:53:47.126Z,20.33
2023-01-30T05:56:13.927Z,20.20
2023-01-30T05:58:40.633Z,21.30
2023-01-30T06:01:10.555Z,22.53
2023-01-30T06:03:37.674Z,20.87
2023-01-30T06:06:05.786Z,22.00
2023-01-30T06:08:33.194Z,20.03
2023-01-30T06:11:04.511Z,16.30
2023-01-30T06:13:31.405Z,21.00
2023-01-30T06:15:58.081Z,15.37
2023-01-30T06:18:24.765Z,20.83
2023-01-30T06:20:53.115Z,16.47
2023-01-30T06:23:20.926Z,20.13
2023-01-30T06:25:49.016Z,17.57
2023-01-30T06:28:17.054Z,17.83
2023-01-30T06:30:43.946Z,19.13
2023-01-30T06:33:11.463Z,17.23
2023-01-30T06:35:42.495Z,23.67
2023-01-30T06:38:11.297Z,19.33
2023-01-30T06:40:38.648Z,20.07
2023-01-30T06:43:05.501Z,17.10
2023-01-30T06:45:32.669Z,14.33
2023-01-30T06:47:59.362Z,15.87
2023-01-30T06:50:28.614Z,14.40
2023-01-30T06:52:56.418Z,13.67
2023-01-30T06:55:26.547Z,12.53
2023-01-30T06:58:07.501Z,9.03
2023-01-30T07:00:35.002Z,6.07
2023-01-30T07:03:02.209Z,8.10
2023-01-30T07:05:29.355Z,4.90
2023-01-30T07:07:56.253Z,3.70
2023-01-30T07:10:23.474Z,4.87
2023-01-30T07:12:50.122Z,3.07
2023-01-30T07:15:17.331Z,4.70
2023-01-30T07:17:44.179Z,4.03
2023-01-30T07:20:11.611Z,4.50
2023-01-30T07:22:38.537Z,3.93
2023-01-30T07:25:06.311Z,4.77
2023-01-30T07:27:33.015Z,3.33
2023-01-30T07:29:59.736Z,3.50
2023-01-30T07:32:26.426Z,6.77
2023-01-30T07:34:53.100Z,3.27
2023-01-30T07:37:19.706Z,5.57
2023-01-30T07:39:46.320Z,7.47
2023-01-30T07:42:13.153Z,3.53
2023-01-30T07:44:40.375Z,6.13
2023-01-30T07:47:07.071Z,4.20
2023-01-30T07:49:33.673Z,2.60
2023-01-30T07:52:00.342Z,3.77
2023-01-30T07:54:26.997Z,4.47
2023-01-30T07:56:53.654Z,3.33
2023-01-30T07:59:20.287Z,3.27
2023-01-30T08:01:46.914Z,8.70
2023-01-30T08:04:13.535Z,5.53
2023-01-30T08:06:40.181Z,4.80
2023-01-30T08:09:07.344Z,9.13
2023-01-30T08:11:34.601Z,3.87
2023-01-30T08:14:01.798Z,9.23
2023-01-30T08:16:28.492Z,2.90
2023-01-30T08:18:55.149Z,7.87
2023-01-30T08:21:21.850Z,7.47
2023-01-30T08:23:48.562Z,7.90
2023-01-30T08:26:15.307Z,11.47
2023-01-30T08:28:42.079Z,12.20
2023-01-30T08:31:13.471Z,6.90
2023-01-30T08:33:40.261Z,10.50
2023-01-30T08:36:07.239Z,17.87
2023-01-30T08:38:33.874Z,7.27
2023-01-30T08:41:01.059Z,10.17
2023-01-30T08:43:27.853Z,16.80
2023-01-30T08:45:54.936Z,10.43
2023-01-30T08:48:21.974Z,10.93
2023-01-30T08:50:52.291Z,18.30
2023-01-30T08:53:19.446Z,12.43
2023-01-30T08:55:46.072Z,12.83
2023-01-30T08:58:12.639Z,8.23
2023-01-30T09:00:39.791Z,10.73
2023-01-30T09:03:06.459Z,8.33
2023-01-30T09:05:33.116Z,10.63
2023-01-30T09:07:59.709Z,13.43
2023-01-30T09:10:26.439Z,10.83
2023-01-30T09:12:53.157Z,10.13
2023-01-30T09:15:19.806Z,11.20
2023-01-30T09:17:46.510Z,13.87
2023-01-30T09:20:13.634Z,13.93
2023-01-30T09:22:40.560Z,7.23
2023-01-30T09:25:08.122Z,12.07
2023-01-30T09:27:35.150Z,13.27
2023-01-30T09:30:01.769Z,14.20
2023-01-30T09:32:28.355Z,12.27
2023-01-30T09:34:55.016Z,11.03
2023-01-30T09:37:21.653Z,11.90
2023-01-30T09:39:48.357Z,14.87
2023-01-30T09:42:49.427Z,9.30
2023-01-30T09:45:34.931Z,24.80
2023-01-30T09:48:17.824Z,12.20
2023-01-30T09:50:59.348Z,11.67
2023-01-30T09:53:53.876Z,16.80
2023-01-30T09:56:21.120Z,14.23
2023-01-30T09:58:57.742Z,11.00
2023-01-30T10:01:30.592Z,17.43
2023-01-30T10:04:11.023Z,7.37
2023-01-30T10:06:47.415Z,13.53
2023-01-30T10:09:27.190Z,17.93
2023-01-30T10:12:08.238Z,11.20
2023-01-30T10:14:39.022Z,16.63
2023-01-30T10:17:27.841Z,13.57
2023-01-30T10:20:10.894Z,11.73
2023-01-30T10:22:45.662Z,13.20
2023-01-30T10:25:32.189Z,9.13
2023-01-30T10:28:15.687Z,9.13
2023-01-30T10:30:46.368Z,10.23
2023-01-30T10:33:23.989Z,11.03
2023-01-30T10:36:04.305Z,9.10
2023-01-30T10:38:49.708Z,15.37
2023-01-30T10:41:54.736Z,9.00
2023-01-30T10:44:23.376Z,11.20
2023-01-30T10:47:13.687Z,12.07
2023-01-30T10:50:01.534Z,9.30
2023-01-30T10:52:52.011Z,11.67
2023-01-30T10:55:42.062Z,18.97
2023-01-30T10:58:15.278Z,17.37
2023-01-30T11:01:06.543Z,13.30
2023-01-30T11:03:42.427Z,14.67
2023-01-30T11:06:26.133Z,11.07
2023-01-30T11:08:54.552Z,14.43
2023-01-30T11:11:47.726Z,16.17
2023-01-30T11:14:14.367Z,14.73
2023-01-30T11:16:50.722Z,9.67
2023-01-30T11:19:21.955Z,10.83
2023-01-30T11:21:55.074Z,15.80
2023-01-30T11:24:33.033Z,15.93
2023-01-30T11:27:12.324Z,10.50
2023-01-30T11:29:39.458Z,8.47
2023-01-30T11:32:25.840Z,9.20
2023-01-30T11:35:03.678Z,16.47
2023-01-30T11:37:34.589Z,25.03
2023-01-30T11:40:28.013Z,16.43
2023-01-30T11:43:13.102Z,13.03
2023-01-30T11:45:48.667Z,13.97
2023-01-30T11:48:34.104Z,9.43
2023-01-30T11:51:10.650Z,16.00
2023-01-30T11:53:44.932Z,10.60
2023-01-30T11:56:30.754Z,5.80
2023-01-30T11:59:01.546Z,13.67
2023-01-30T12:01:34.302Z,9.57
2023-01-30T12:04:01.990Z,7.73
2023-01-30T12:06:34.407Z,9.80
2023-01-30T12:09:01.159Z,8.80
2023-01-30T12:11:29.456Z,5.93
2023-01-30T12:14:09.516Z,8.97
2023-01-30T12:17:05.686Z,12.53
2023-01-30T12:19:55.682Z,7.70
2023-01-30T12:22:38.881Z,7.80
2023-01-30T12:25:25.287Z,10.73
2023-01-30T12:28:22.354Z,10.03
2023-01-30T12:30:56.406Z,12.03
2023-01-30T12:33:29.611Z,14.10
2023-01-30T12:36:09.463Z,8.70
2023-01-30T12:39:13.059Z,9.50
2023-01-30T12:42:17.975Z,14.10
2023-01-30T12:45:11.743Z,11.70
2023-01-30T12:48:06.591Z,13.80
2023-01-30T12:50:51.206Z,11.20
2023-01-30T12:53:20.540Z,7.60
2023-01-30T12:56:09.129Z,8.50
2023-01-30T12:58:51.651Z,14.60
2023-01-30T13:01:29.572Z,6.43
2023-01-30T13:04:29.764Z,19.67
2023-01-30T13:07:36.858Z,20.17
2023-01-30T13:10:06.540Z,14.87
2023-01-30T13:12:46.219Z,11.83
2023-01-30T13:15:33.895Z,11.63
2023-01-30T13:18:31.778Z,12.33
2023-01-30T13:21:24.673Z,18.70
2023-01-30T13:24:08.617Z,15.57
2023-01-30T13:26:37.583Z,9.00
2023-01-30T13:29:31.768Z,11.50
2023-01-30T13:32:02.432Z,12.07
2023-01-30T13:34:49.343Z,10.87
2023-01-30T13:37:18.056Z,16.70
2023-01-30T13:40:16.238Z,8.23
2023-01-30T13:42:55.174Z,14.83
2023-01-30T13:45:25.991Z,14.80
2023-01-30T13:48:20.105Z,10.40
2023-01-30T13:51:05.783Z,13.57
2023-01-30T13:54:19.796Z,10.93
2023-01-30T13:57:06.714Z,15.30
2023-01-30T14:00:09.346Z,9.10
2023-01-30T14:02:58.377Z,15.00
2023-01-30T14:06:00.813Z,6.73
2023-01-30T14:08:45.575Z,12.97
2023-01-30T14:11:34.181Z,5.43
2023-01-30T14:14:05.365Z,5.50
2023-01-30T14:16:53.345Z,6.80
2023-01-30T14:19:42.111Z,11.33
2023-01-30T14:22:24.826Z,5.30
2023-01-30T14:25:22.707Z,10.27
2023-01-30T14:27:55.356Z,2.83
2023-01-30T14:30:31.052Z,5.53
2023-01-30T14:33:00.488Z,9.90
2023-01-30T14:35:32.405Z,3.53
2023-01-30T14:38:17.314Z,7.90
2023-01-30T14:41:07.000Z,8.00
2023-01-30T14:43:41.297Z,11.87
2023-01-30T14:46:20.312Z,5.50
2023-01-30T14:49:19.753Z,5.70
2023-01-30T14:51:48.259Z,6.07
2023-01-30T14:54:14.927Z,3.37
2023-01-30T14:56:55.786Z,8.20
2023-01-30T14:59:32.889Z,8.97
2023-01-30T15:02:07.636Z,5.87
2023-01-30T15:05:06.699Z,7.07
2023-01-30T15:07:57.551Z,9.37
2023-01-30T15:10:42.857Z,7.37
2023-01-30T15:13:28.544Z,6.13
2023-01-30T15:16:20.734Z,10.60
2023-01-30T15:19:02.670Z,3.37
2023-01-30T15:21:40.494Z,5.33
2023-01-30T15:24:40.389Z,12.70
2023-01-30T15:27:32.889Z,9.43
2023-01-30T15:30:31.402Z,7.87
2023-01-30T15:33:19.895Z,5.47
2023-01-30T15:35:49.532Z,7.37
2023-01-30T15:38:34.998Z,8.57
2023-01-30T15:41:06.075Z,9.03
2023-01-30T15:43:51.577Z,9.03
2023-01-30T15:46:24.233Z,8.60
2023-01-30T15:49:09.408Z,8.77
2023-01-30T15:51:36.161Z,7.50
2023-01-30T15:54:08.875Z,12.90
2023-01-30T15:56:35.932Z,11.73
2023-01-30T15:59:03.063Z,8.83
2023-01-30T16:01:30.752Z,6.37
2023-01-30T16:04:00.497Z,14.83
2023-01-30T16:06:36.337Z,9.53
2023-01-30T16:09:20.546Z,5.33
2023-01-30T16:11:47.611Z,7.53
2023-01-30T16:14:21.423Z,9.87
2023-01-30T16:17:00.281Z,11.60
2023-01-30T16:19:30.651Z,9.77
2023-01-30T16:22:01.299Z,8.67
2023-01-30T16:24:33.944Z,15.47
2023-01-30T16:27:07.504Z,12.50
2023-01-30T16:29:50.618Z,11.37
2023-01-30T16:32:19.554Z,11.53
2023-01-30T16:34:46.229Z,10.63
2023-01-30T16:37:18.788Z,12.93
2023-01-30T16:39:46.532Z,13.07
2023-01-30T16:42:26.150Z,9.67
2023-01-30T16:45:21.318Z,9.30
2023-01-30T16:47:48.258Z,11.67
2023-01-30T16:50:21.546Z,12.17
2023-01-30T16:52:53.335Z,17.10
2023-01-30T16:55:23.083Z,14.30
2023-01-30T16:58:02.098Z,11.93
2023-01-30T17:00:37.137Z,13.90
2023-01-30T17:03:05.236Z,10.17
2023-01-30T17:05:41.681Z,16.50
2023-01-30T17:08:42.667Z,14.90
2023-01-30T17:11:09.352Z,13.07
2023-01-30T17:13:44.286Z,17.33
2023-01-30T17:16:25.964Z,10.53
2023-01-30T17:18:55.760Z,22.23
2023-01-30T17:21:27.900Z,13.23
2023-01-30T17:24:03.470Z,20.47
2023-01-30T17:26:30.871Z,12.90
2023-01-30T17:28:57.714Z,16.70
2023-01-30T17:31:24.538Z,17.33
2023-01-30T17:33:51.241Z,15.17
2023-01-30T17:36:25.162Z,9.77
2023-01-30T17:38:51.836Z,11.33
2023-01-30T17:41:24.058Z,14.17
2023-01-30T17:43:51.073Z,21.03
2023-01-30T17:46:18.219Z,14.27
2023-01-30T17:48:44.951Z,14.80
2023-01-30T17:51:14.190Z,21.23
2023-01-30T17:53:41.670Z,17.37
2023-01-30T17:56:23.221Z,11.63
2023-01-30T17:58:52.975Z,13.73
2023-01-30T18:01:19.729Z,15.33
2023-01-30T18:03:46.362Z,13.57
2023-01-30T18:06:14.968Z,16.57
2023-01-30T18:08:42.425Z,16.30
2023-01-30T18:11:11.599Z,19.47
2023-01-30T18:13:39.605Z,12.63
2023-01-30T18:16:06.618Z,21.47
2023-01-30T18:18:33.622Z,21.93
2023-01-30T18:21:00.320Z,14.27
2023-01-30T18:23:26.930Z,16.37
2023-01-30T18:25:53.527Z,12.10
2023-01-30T18:28:20.164Z,16.03
2023-01-30T18:30:46.842Z,14.80
2023-01-30T18:33:13.485Z,12.57
2023-01-30T18:35:40.124Z,12.07
2023-01-30T18:38:06.715Z,19.53
2023-01-30T18:40:33.309Z,11.73
2023-01-30T18:42:59.904Z,15.17
2023-01-30T18:45:26.511Z,23.37
2023-01-30T18:47:54.465Z,16.90
2023-01-30T18:50:21.552Z,16.27
2023-01-30T18:52:49.760Z,17.87
2023-01-30T18:55:16.707Z,10.23
2023-01-30T18:57:43.371Z,23.57
2023-01-30T19:00:10.693Z,20.40
2023-01-30T19:02:37.387Z,17.27
2023-01-30T19:05:04.451Z,15.47
2023-01-30T19:07:31.044Z,16.27
2023-01-30T19:09:58.729Z,27.60
2023-01-30T19:12:43.959Z,24.20
2023-01-30T19:15:10.735Z,13.03
2023-01-30T19:17:37.442Z,13.90
2023-01-30T19:20:10.286Z,14.23
2023-01-30T19:22:37.071Z,13.17
2023-01-30T19:25:03.881Z,12.63
2023-01-30T19:27:30.540Z,5.13
2023-01-30T19:29:57.377Z,10.17
2023-01-30T19:32:24.176Z,12.63
2023-01-30T19:34:51.118Z,12.73
2023-01-30T19:37:17.717Z,10.23
2023-01-30T19:39:44.302Z,9.73
2023-01-30T19:42:10.935Z,10.20
2023-01-30T19:44:37.811Z,11.20
2023-01-30T19:47:04.471Z,14.57
2023-01-30T19:49:31.625Z,14.33
2023-01-30T19:52:01.987Z,13.37
2023-01-30T19:54:28.715Z,13.23
2023-01-30T19:56:55.358Z,14.73
2023-01-30T19:59:26.611Z,14.20
2023-01-30T20:01:53.305Z,17.90
2023-01-30T20:04:19.983Z,20.27
2023-01-30T20:06:49.573Z,20.13
2023-01-30T20:09:16.527Z,20.13
2023-01-30T20:11:43.225Z,10.10
2023-01-30T20:14:10.686Z,15.83
2023-01-30T20:16:37.636Z,20.53
2023-01-30T20:19:12.360Z,18.77
2023-01-30T20:21:39.006Z,23.83
2023-01-30T20:24:06.992Z,17.07
2023-01-30T20:26:37.215Z,17.60
2023-01-30T20:29:04.834Z,19.23
2023-01-30T20:31:31.780Z,15.23
2023-01-30T20:34:01.613Z,20.10
2023-01-30T20:36:28.311Z,17.57
2023-01-30T20:38:55.957Z,20.30
2023-01-30T20:41:26.362Z,12.77
2023-01-30T20:43:57.099Z,12.77
2023-01-30T20:46:29.384Z,12.20
2023-01-30T20:48:58.690Z,12.00
2023-01-30T20:51:28.318Z,22.07
2023-01-30T20:54:00.287Z,17.07
2023-01-30T20:56:30.988Z,14.10
2023-01-30T20:58:57.691Z,17.07
2023-01-30T21:01:25.104Z,16.43
2023-01-30T21:03:53.259Z,22.27
2023-01-30T21:06:42.976Z,29.93
2023-01-30T21:09:11.721Z,13.20
2023-01-30T21:11:39.484Z,13.53
2023-01-30T21:14:06.451Z,17.37
2023-01-30T21:16:34.779Z,17.10
2023-01-30T21:19:05.293Z,22.90
2023-01-30T21:21:40.126Z,20.17
2023-01-30T21:24:10.879Z,14.83
2023-01-30T21:26:39.899Z,24.77
2023-01-30T21:29:08.279Z,12.37
2023-01-30T21:31:36.357Z,10.20
2023-01-30T21:34:04.001Z,17.77
2023-01-30T21:36:30.991Z,19.17
2023-01-30T21:39:16.191Z,17.93
2023-01-30T21:42:04.117Z,16.83
2023-01-30T21:44:33.270Z,15.13
2023-01-30T21:47:00.193Z,18.97
2023-01-30T21:49:27.858Z,15.57
2023-01-30T21:51:54.697Z,16.73
2023-01-30T21:54:21.895Z,24.30
2023-01-30T21:56:49.261Z,16.70
2023-01-30T21:59:16.791Z,13.80
2023-01-30T22:01:43.476Z,18.30
2023-01-30T22:04:13.848Z,20.43
2023-01-30T22:06:41.809Z,20.83
2023-01-30T22:09:11.603Z,17.37
2023-01-30T22:11:38.777Z,20.63
2023-01-30T22:14:05.585Z,20.03
2023-01-30T22:16:33.621Z,12.10
2023-01-30T22:19:03.880Z,12.40
2023-01-30T22:21:34.909Z,16.67
2023-01-30T22:24:02.707Z,20.70
2023-01-30T22:26:30.027Z,16.23
2023-01-30T22:28:58.871Z,19.47
2023-01-30T22:31:28.009Z,12.00
2023-01-30T22:33:55.907Z,15.37
2023-01-30T22:36:30.674Z,10.23
2023-01-30T22:38:57.358Z,16.47
2023-01-30T22:41:25.843Z,14.50
2023-01-30T22:43:55.382Z,16.93
2023-01-30T22:46:33.506Z,14.63
2023-01-30T22:49:01.691Z,17.43
2023-01-30T22:51:34.836Z,13.70
2023-01-30T22:54:07.432Z,13.90
2023-01-30T22:56:39.792Z,14.40
2023-01-30T22:59:07.332Z,18.83
2023-01-30T23:01:37.230Z,7.80
2023-01-30T23:04:18.854Z,16.27
2023-01-30T23:06:47.262Z,13.83
2023-01-30T23:09:17.375Z,18.13
2023-01-30T23:12:14.389Z,11.47
2023-01-30T23:14:42.705Z,11.17
2023-01-30T23:17:28.332Z,14.07
2023-01-30T23:19:55.171Z,12.47
2023-01-30T23:22:21.942Z,12.13
2023-01-30T23:24:48.685Z,16.67
2023-01-30T23:27:15.592Z,13.83
2023-01-30T23:29:42.584Z,18.77
2023-01-30T23:32:09.226Z,14.63
2023-01-30T23:34:36.479Z,17.93
2023-01-30T23:37:03.192Z,15.50
2023-01-30T23:39:29.873Z,10.83
2023-01-30T23:41:56.507Z,16.47
2023-01-30T23:44:23.190Z,12.67
2023-01-30T23:46:49.886Z,16.23
2023-01-30T23:49:16.560Z,15.57
2023-01-30T23:51:44.523Z,13.70
2023-01-30T23:54:12.700Z,17.07
2023-01-30T23:56:42.491Z,23.93
2023-01-30T23:59:09.735Z,9.23
